createdAt,value
2023-03-02T00:01:32.590Z,102575.41
2023-03-02T00:04:01.705Z,102570.13
2023-03-02T00:06:32.376Z,102574.25
2023-03-02T00:09:00.963Z,102578.63
2023-03-02T00:11:31.906Z,102577.00
2023-03-02T00:13:59.384Z,102580.53
2023-03-02T00:16:26.963Z,102578.78
2023-03-02T00:18:54.359Z,102579.09
2023-03-02T00:21:21.766Z,102573.72
2023-03-02T00:23:49.151Z,102565.69
2023-03-02T00:26:16.574Z,102566.81
2023-03-02T00:28:44.066Z,102576.06
2023-03-02T00:31:11.674Z,102574.13
2023-03-02T00:33:39.236Z,102568.81
2023-03-02T00:36:06.829Z,102576.22
2023-03-02T00:38:34.187Z,102540.41
2023-03-02T00:41:01.557Z,102568.03
2023-03-02T00:43:28.980Z,102564.00
2023-03-02T00:45:56.536Z,102563.59
2023-03-02T00:48:24.003Z,102570.91
2023-03-02T00:50:51.385Z,102564.66
2023-03-02T00:53:18.986Z,102568.69
2023-03-02T00:55:53.577Z,102560.78
2023-03-02T00:58:21.442Z,102570.44
2023-03-02T01:00:48.866Z,102567.03
2023-03-02T01:03:16.639Z,102563.50
2023-03-02T01:05:44.064Z,102573.38
2023-03-02T01:08:11.655Z,102570.25
2023-03-02T01:10:39.445Z,102572.19
2023-03-02T01:13:06.990Z,102562.84
2023-03-02T01:15:34.871Z,102568.81
2023-03-02T01:18:02.368Z,102567.94
2023-03-02T01:20:29.890Z,102567.53
2023-03-02T01:22:57.412Z,102577.16
2023-03-02T01:25:24.919Z,102571.22
2023-03-02T01:27:52.350Z,102571.38
2023-03-02T01:30:19.916Z,102564.72
2023-03-02T01:32:47.402Z,102562.56
2023-03-02T01:35:14.833Z,102574.06
2023-03-02T01:37:42.332Z,102576.59
2023-03-02T01:40:10.140Z,102566.81
2023-03-02T01:42:41.704Z,102570.50
2023-03-02T01:45:27.971Z,102567.19
2023-03-02T01:47:55.502Z,102570.53
2023-03-02T01:50:25.756Z,102568.28
2023-03-02T01:52:54.418Z,102567.75
2023-03-02T01:55:25.145Z,102563.00
2023-03-02T01:57:53.244Z,102557.66
2023-03-02T02:00:25.668Z,102564.22
2023-03-02T02:02:54.049Z,102554.84
2023-03-02T02:05:23.358Z,102555.75
2023-03-02T02:07:50.843Z,102566.56
2023-03-02T02:10:18.425Z,102558.81
2023-03-02T02:12:45.819Z,102558.47
2023-03-02T02:15:13.289Z,102556.69
2023-03-02T02:17:41.220Z,102558.56
2023-03-02T02:20:09.129Z,102552.38
2023-03-02T02:22:42.455Z,102549.50
2023-03-02T02:25:17.779Z,102533.06
2023-03-02T02:27:45.711Z,102536.09
2023-03-02T02:30:14.428Z,102532.09
2023-03-02T02:32:42.705Z,102533.41
2023-03-02T02:35:27.194Z,102544.94
2023-03-02T02:38:05.426Z,102538.31
2023-03-02T02:40:41.909Z,102534.66
2023-03-02T02:43:12.895Z,102535.03
2023-03-02T02:45:40.377Z,102533.09
2023-03-02T02:48:12.090Z,102526.88
2023-03-02T02:50:39.597Z,102529.19
2023-03-02T02:53:12.188Z,102529.72
2023-03-02T02:55:40.364Z,102529.88
2023-03-02T02:58:19.967Z,102529.88
2023-03-02T03:00:47.444Z,102515.19
2023-03-02T03:03:30.798Z,102512.38
2023-03-02T03:05:59.667Z,102516.00
2023-03-02T03:08:42.122Z,102515.66
2023-03-02T03:11:10.774Z,102514.16
2023-03-02T03:13:38.895Z,102520.25
2023-03-02T03:16:07.636Z,102507.53
2023-03-02T03:18:35.084Z,102516.13
2023-03-02T03:21:02.555Z,102518.91
2023-03-02T03:23:30.020Z,102519.84
2023-03-02T03:25:57.428Z,102515.19
2023-03-02T03:28:24.790Z,102516.75
2023-03-02T03:30:52.231Z,102516.31
2023-03-02T03:33:19.635Z,102514.91
2023-03-02T03:35:47.113Z,102524.28
2023-03-02T03:38:14.539Z,102520.69
2023-03-02T03:40:41.983Z,102515.56
2023-03-02T03:43:09.558Z,102524.59
2023-03-02T03:45:36.987Z,102526.16
2023-03-02T03:48:04.425Z,102525.50
2023-03-02T03:50:31.883Z,102531.38
2023-03-02T03:52:59.297Z,102532.63
2023-03-02T03:55:28.385Z,102535.56
2023-03-02T03:57:56.209Z,102539.72
2023-03-02T04:00:24.234Z,102532.16
2023-03-02T04:02:51.769Z,102525.56
2023-03-02T04:05:19.297Z,102525.44
2023-03-02T04:07:46.742Z,102534.38
2023-03-02T04:10:14.117Z,102537.31
2023-03-02T04:12:42.374Z,102534.47
2023-03-02T04:15:11.337Z,102536.41
2023-03-02T04:17:38.708Z,102525.06
2023-03-02T04:20:07.625Z,102531.53
2023-03-02T04:22:35.136Z,102521.75
2023-03-02T04:25:02.554Z,102516.91
2023-03-02T04:27:29.958Z,102513.44
2023-03-02T04:29:57.341Z,102518.22
2023-03-02T04:32:24.784Z,102512.41
2023-03-02T04:34:52.281Z,102523.00
2023-03-02T04:37:19.662Z,102520.88
2023-03-02T04:39:51.197Z,102524.06
2023-03-02T04:42:19.264Z,102523.34
2023-03-02T04:44:46.769Z,102526.00
2023-03-02T04:47:14.346Z,102524.94
2023-03-02T04:49:41.880Z,102528.13
2023-03-02T04:52:09.382Z,102519.53
2023-03-02T04:54:36.816Z,102515.41
2023-03-02T04:57:04.388Z,102524.09
2023-03-02T04:59:31.753Z,102527.94
2023-03-02T05:02:01.392Z,102529.41
2023-03-02T05:04:29.653Z,102531.25
2023-03-02T05:06:57.555Z,102523.31
2023-03-02T05:09:27.450Z,102530.28
2023-03-02T05:11:59.274Z,102526.25
2023-03-02T05:14:27.174Z,102524.88
2023-03-02T05:16:54.588Z,102520.75
2023-03-02T05:19:22.424Z,102513.06
2023-03-02T05:21:49.885Z,102519.97
2023-03-02T05:24:17.372Z,102514.66
2023-03-02T05:26:44.783Z,102518.19
2023-03-02T05:29:12.221Z,102513.84
2023-03-02T05:31:41.675Z,102512.28
2023-03-02T05:34:10.245Z,102510.97
2023-03-02T05:36:37.798Z,102526.47
2023-03-02T05:39:05.922Z,102520.16
2023-03-02T05:41:33.431Z,102520.25
2023-03-02T05:44:01.095Z,102510.91
2023-03-02T05:46:28.712Z,102517.78
2023-03-02T05:48:56.162Z,102521.13
2023-03-02T05:51:23.732Z,102511.69
2023-03-02T05:53:51.119Z,102522.72
2023-03-02T05:56:20.694Z,102527.06
2023-03-02T05:58:48.070Z,102533.56
2023-03-02T06:01:15.714Z,102524.72
2023-03-02T06:03:43.621Z,102519.75
2023-03-02T06:06:13.854Z,102528.22
2023-03-02T06:08:41.831Z,102523.19
2023-03-02T06:11:09.912Z,102530.78
2023-03-02T06:13:37.724Z,102536.81
2023-03-02T06:16:05.474Z,102531.78
2023-03-02T06:18:33.018Z,102531.78
2023-03-02T06:21:00.963Z,102538.38
2023-03-02T06:23:28.504Z,102537.69
2023-03-02T06:25:55.909Z,102544.97
2023-03-02T06:28:23.369Z,102547.84
2023-03-02T06:30:52.253Z,102552.25
2023-03-02T06:33:21.206Z,102557.16
2023-03-02T06:35:49.055Z,102554.81
2023-03-02T06:38:16.813Z,102558.44
2023-03-02T06:40:44.484Z,102559.72
2023-03-02T06:43:12.015Z,102560.09
2023-03-02T06:45:39.470Z,102564.47
2023-03-02T06:48:07.107Z,102565.44
2023-03-02T06:50:34.970Z,102567.63
2023-03-02T06:53:02.449Z,102560.41
2023-03-02T06:55:29.810Z,102569.97
2023-03-02T06:57:57.236Z,102562.22
2023-03-02T07:00:27.968Z,102576.25
2023-03-02T07:02:56.028Z,102581.38
2023-03-02T07:05:24.298Z,102573.91
2023-03-02T07:07:51.781Z,102576.78
2023-03-02T07:10:19.249Z,102575.69
2023-03-02T07:12:46.701Z,102566.16
2023-03-02T07:15:14.629Z,102566.31
2023-03-02T07:17:44.210Z,102571.16
2023-03-02T07:20:13.180Z,102565.25
2023-03-02T07:22:40.963Z,102567.44
2023-03-02T07:25:09.073Z,102569.28
2023-03-02T07:27:36.624Z,102575.09
2023-03-02T07:30:04.290Z,102566.09
2023-03-02T07:32:31.781Z,102566.84
2023-03-02T07:34:59.264Z,102554.28
2023-03-02T07:37:26.861Z,102559.94
2023-03-02T07:39:54.308Z,102559.06
2023-03-02T07:42:21.812Z,102556.66
2023-03-02T07:44:49.253Z,102555.44
2023-03-02T07:47:16.673Z,102549.47
2023-03-02T07:49:44.133Z,102546.69
2023-03-02T07:52:11.574Z,102552.06
2023-03-02T07:54:38.967Z,102542.09
2023-03-02T07:57:06.440Z,102541.94
2023-03-02T07:59:33.827Z,102539.09
2023-03-02T08:02:02.015Z,102537.25
2023-03-02T08:04:29.517Z,102543.31
2023-03-02T08:06:56.928Z,102545.31
2023-03-02T08:09:24.344Z,102545.97
2023-03-02T08:11:51.852Z,102538.38
2023-03-02T08:14:19.289Z,102537.47
2023-03-02T08:16:46.719Z,102533.78
2023-03-02T08:19:14.104Z,102541.59
2023-03-02T08:21:41.637Z,102537.78
2023-03-02T08:24:09.272Z,102524.91
2023-03-02T08:26:36.686Z,102535.66
2023-03-02T08:29:04.182Z,102525.91
2023-03-02T08:31:32.212Z,102523.91
2023-03-02T08:34:00.652Z,102526.25
2023-03-02T08:36:28.092Z,102529.69
2023-03-02T08:38:55.947Z,102523.47
2023-03-02T08:41:24.098Z,102528.16
2023-03-02T08:43:54.260Z,102528.25
2023-03-02T08:46:21.712Z,102522.31
2023-03-02T08:48:51.238Z,102524.00
2023-03-02T08:51:21.045Z,102522.22
2023-03-02T08:53:51.188Z,102526.81
2023-03-02T08:56:29.631Z,102519.44
2023-03-02T08:59:00.632Z,102508.53
2023-03-02T09:01:29.944Z,102510.31
2023-03-02T09:03:59.819Z,102511.06
2023-03-02T09:06:27.967Z,102524.75
2023-03-02T09:08:55.329Z,102520.63
2023-03-02T09:11:22.752Z,102519.31
2023-03-02T09:13:50.347Z,102510.75
2023-03-02T09:16:19.762Z,102516.06
2023-03-02T09:18:47.734Z,102520.75
2023-03-02T09:21:15.176Z,102509.81
2023-03-02T09:23:42.712Z,102514.19
2023-03-02T09:26:10.301Z,102510.63
2023-03-02T09:28:38.340Z,102518.13
2023-03-02T09:31:06.480Z,102525.19
2023-03-02T09:33:33.961Z,102522.50
2023-03-02T09:36:02.368Z,102518.66
2023-03-02T09:38:29.745Z,102515.94
2023-03-02T09:41:06.237Z,102516.97
2023-03-02T09:43:52.047Z,102516.16
2023-03-02T09:46:38.710Z,102525.19
2023-03-02T09:49:21.491Z,102520.59
2023-03-02T09:51:57.008Z,102508.31
2023-03-02T09:54:25.511Z,102524.09
2023-03-02T09:56:57.263Z,102516.75
2023-03-02T09:59:30.006Z,102516.19
2023-03-02T10:02:01.407Z,102514.03
2023-03-02T10:04:30.549Z,102512.78
2023-03-02T10:07:12.729Z,102516.50
2023-03-02T10:09:40.775Z,102503.34
2023-03-02T10:12:34.248Z,102500.75
2023-03-02T10:15:05.634Z,102504.56
2023-03-02T10:17:39.648Z,102498.66
2023-03-02T10:20:15.338Z,102502.16
2023-03-02T10:22:49.129Z,102510.66
2023-03-02T10:25:19.312Z,102507.13
2023-03-02T10:27:54.398Z,102507.97
2023-03-02T10:30:36.483Z,102504.09
2023-03-02T10:33:09.173Z,102488.06
2023-03-02T10:35:38.307Z,102504.94
2023-03-02T10:38:12.563Z,102493.91
2023-03-02T10:40:40.112Z,102489.09
2023-03-02T10:43:12.417Z,102489.03
2023-03-02T10:45:39.846Z,102489.44
2023-03-02T10:48:09.131Z,102486.00
2023-03-02T10:50:36.879Z,102482.16
2023-03-02T10:53:07.152Z,102483.50
2023-03-02T10:55:35.262Z,102475.13
2023-03-02T10:58:05.604Z,102478.06
2023-03-02T11:00:34.191Z,102477.97
2023-03-02T11:03:07.870Z,102474.09
2023-03-02T11:05:39.799Z,102466.69
2023-03-02T11:08:10.097Z,102470.34
2023-03-02T11:10:39.304Z,102469.97
2023-03-02T11:13:26.702Z,102464.59
2023-03-02T11:15:55.225Z,102474.56
2023-03-02T11:18:28.420Z,102460.94
2023-03-02T11:21:00.119Z,102472.97
2023-03-02T11:23:39.700Z,102461.78
2023-03-02T11:26:19.406Z,102451.97
2023-03-02T11:28:55.468Z,102452.84
2023-03-02T11:31:27.663Z,102451.97
2023-03-02T11:34:11.789Z,102453.13
2023-03-02T11:36:50.161Z,102453.25
2023-03-02T11:39:24.826Z,102451.97
2023-03-02T11:41:54.099Z,102443.91
2023-03-02T11:44:24.697Z,102451.63
2023-03-02T11:46:56.884Z,102445.88
2023-03-02T11:49:47.631Z,102447.50
2023-03-02T11:52:25.985Z,102436.81
2023-03-02T11:55:07.402Z,102439.78
2023-03-02T11:57:49.866Z,102442.03
2023-03-02T12:00:37.670Z,102438.78
2023-03-02T12:03:20.019Z,102426.94
2023-03-02T12:05:59.822Z,102426.56
2023-03-02T12:08:32.652Z,102423.09
2023-03-02T12:11:00.290Z,102428.28
2023-03-02T12:13:36.724Z,102417.50
2023-03-02T12:16:05.198Z,102422.53
2023-03-02T12:18:46.536Z,102417.00
2023-03-02T12:21:15.598Z,102411.13
2023-03-02T12:23:55.657Z,102410.13
2023-03-02T12:26:23.099Z,102411.22
2023-03-02T12:28:57.813Z,102418.16
2023-03-02T12:31:26.554Z,102401.97
2023-03-02T12:33:54.491Z,102394.53
2023-03-02T12:36:33.802Z,102407.50
2023-03-02T12:39:10.661Z,102407.81
2023-03-02T12:41:46.355Z,102416.91
2023-03-02T12:44:31.649Z,102399.56
2023-03-02T12:47:01.376Z,102408.59
2023-03-02T12:49:49.685Z,102397.25
2023-03-02T12:52:24.134Z,102384.25
2023-03-02T12:55:00.417Z,102393.81
2023-03-02T12:57:28.248Z,102395.94
2023-03-02T12:59:58.082Z,102389.69
2023-03-02T13:02:27.419Z,102381.22
2023-03-02T13:04:58.879Z,102389.38
2023-03-02T13:07:28.496Z,102377.50
2023-03-02T13:09:58.305Z,102386.00
2023-03-02T13:12:29.468Z,102381.47
2023-03-02T13:14:58.470Z,102374.13
2023-03-02T13:17:30.991Z,102369.44
2023-03-02T13:20:02.835Z,102368.19
2023-03-02T13:22:30.810Z,102362.09
2023-03-02T13:24:59.065Z,102354.63
2023-03-02T13:27:27.223Z,102358.97
2023-03-02T13:29:56.675Z,102359.06
2023-03-02T13:32:26.193Z,102351.19
2023-03-02T13:34:58.592Z,102347.38
2023-03-02T13:37:39.105Z,102353.09
2023-03-02T13:40:08.313Z,102347.31
2023-03-02T13:42:37.681Z,102346.53
2023-03-02T13:45:25.365Z,102347.53
2023-03-02T13:47:53.492Z,102351.84
2023-03-02T13:50:22.472Z,102337.38
2023-03-02T13:52:50.607Z,102336.31
2023-03-02T13:55:19.248Z,102347.63
2023-03-02T13:57:47.053Z,102335.25
2023-03-02T14:00:14.716Z,102335.41
2023-03-02T14:02:42.694Z,102337.66
2023-03-02T14:05:17.069Z,102349.28
2023-03-02T14:07:44.647Z,102342.63
2023-03-02T14:10:12.744Z,102331.31
2023-03-02T14:12:41.646Z,102339.88
2023-03-02T14:15:11.871Z,102339.22
2023-03-02T14:17:39.321Z,102327.75
2023-03-02T14:20:07.433Z,102327.19
2023-03-02T14:22:35.540Z,102325.38
2023-03-02T14:25:02.917Z,102327.06
2023-03-02T14:27:30.948Z,102310.22
2023-03-02T14:29:59.038Z,102316.63
2023-03-02T14:32:26.901Z,102316.25
2023-03-02T14:34:54.461Z,102323.59
2023-03-02T14:37:23.470Z,102307.59
2023-03-02T14:39:54.193Z,102302.50
2023-03-02T14:42:22.983Z,102316.97
2023-03-02T14:44:51.399Z,102300.50
2023-03-02T14:47:19.509Z,102311.97
2023-03-02T14:49:46.989Z,102306.09
2023-03-02T14:52:17.309Z,102301.28
2023-03-02T14:54:51.273Z,102296.81
2023-03-02T14:57:26.288Z,102298.97
2023-03-02T14:59:54.516Z,102300.88
2023-03-02T15:02:26.073Z,102310.22
2023-03-02T15:04:56.620Z,102292.97
2023-03-02T15:07:24.867Z,102288.13
2023-03-02T15:09:52.307Z,102302.91
2023-03-02T15:12:19.750Z,102291.72
2023-03-02T15:14:47.102Z,102292.59
2023-03-02T15:17:14.557Z,102282.53
2023-03-02T15:19:42.024Z,102284.53
2023-03-02T15:22:09.585Z,102286.59
2023-03-02T15:24:37.015Z,102289.25
2023-03-02T15:27:04.677Z,102286.56
2023-03-02T15:29:32.079Z,102286.84
2023-03-02T15:32:00.815Z,102284.63
2023-03-02T15:34:28.335Z,102282.97
2023-03-02T15:36:55.753Z,102286.03
2023-03-02T15:39:23.394Z,102285.78
2023-03-02T15:41:50.767Z,102288.91
2023-03-02T15:44:21.992Z,102287.13
2023-03-02T15:46:50.483Z,102298.63
2023-03-02T15:49:22.602Z,102297.09
2023-03-02T15:51:51.540Z,102298.53
2023-03-02T15:54:19.226Z,102293.38
2023-03-02T15:56:51.824Z,102291.41
2023-03-02T15:59:19.657Z,102295.34
2023-03-02T16:01:47.170Z,102295.06
2023-03-02T16:04:14.702Z,102301.94
2023-03-02T16:06:42.109Z,102298.78
2023-03-02T16:09:09.541Z,102302.06
2023-03-02T16:11:37.402Z,102303.00
2023-03-02T16:14:05.252Z,102303.47
2023-03-02T16:16:32.787Z,102299.66
2023-03-02T16:19:01.237Z,102297.16
2023-03-02T16:21:29.509Z,102320.34
2023-03-02T16:24:03.298Z,102321.66
2023-03-02T16:26:31.868Z,102319.53
2023-03-02T16:28:59.812Z,102320.94
2023-03-02T16:31:28.072Z,102312.97
2023-03-02T16:33:57.497Z,102320.94
2023-03-02T16:36:24.865Z,102323.66
2023-03-02T16:38:52.486Z,102321.31
2023-03-02T16:41:21.162Z,102329.94
2023-03-02T16:43:50.277Z,102328.34
2023-03-02T16:46:18.048Z,102334.81
2023-03-02T16:48:47.494Z,102339.94
2023-03-02T16:51:15.295Z,102331.06
2023-03-02T16:53:42.941Z,102335.41
2023-03-02T16:56:11.306Z,102343.84
2023-03-02T16:58:39.736Z,102341.28
2023-03-02T17:01:07.906Z,102343.03
2023-03-02T17:03:35.610Z,102348.31
2023-03-02T17:06:03.219Z,102347.56
2023-03-02T17:08:30.785Z,102348.78
2023-03-02T17:10:58.248Z,102355.66
2023-03-02T17:13:25.761Z,102358.25
2023-03-02T17:15:53.879Z,102365.41
2023-03-02T17:18:21.610Z,102360.19
2023-03-02T17:20:51.793Z,102364.59
2023-03-02T17:23:19.425Z,102367.66
2023-03-02T17:25:46.906Z,102372.94
2023-03-02T17:28:14.995Z,102371.34
2023-03-02T17:30:43.538Z,102374.16
2023-03-02T17:33:11.329Z,102383.94
2023-03-02T17:35:38.867Z,102385.16
2023-03-02T17:38:06.327Z,102388.47
2023-03-02T17:40:33.938Z,102389.38
2023-03-02T17:43:01.634Z,102389.50
2023-03-02T17:45:30.019Z,102391.34
2023-03-02T17:47:58.735Z,102400.34
2023-03-02T17:50:26.482Z,102404.88
2023-03-02T17:52:55.524Z,102403.97
2023-03-02T17:55:23.003Z,102403.75
2023-03-02T17:57:50.603Z,102412.19
2023-03-02T18:00:21.067Z,102405.63
2023-03-02T18:02:48.518Z,102411.34
2023-03-02T18:05:16.036Z,102426.34
2023-03-02T18:07:43.514Z,102422.88
2023-03-02T18:10:11.677Z,102431.34
2023-03-02T18:12:39.301Z,102428.38
2023-03-02T18:15:07.122Z,102434.22
2023-03-02T18:17:34.500Z,102431.19
2023-03-02T18:20:02.031Z,102439.13
2023-03-02T18:22:29.538Z,102443.38
2023-03-02T18:24:57.079Z,102444.16
2023-03-02T18:27:24.565Z,102441.56
2023-03-02T18:29:52.092Z,102450.78
2023-03-02T18:32:19.521Z,102454.63
2023-03-02T18:34:46.973Z,102457.69
2023-03-02T18:37:19.225Z,102461.78
2023-03-02T18:39:46.743Z,102467.78
2023-03-02T18:42:14.259Z,102453.72
2023-03-02T18:44:42.765Z,102448.25
2023-03-02T18:47:11.730Z,102451.56
2023-03-02T18:49:42.567Z,102456.44
2023-03-02T18:52:13.268Z,102453.00
2023-03-02T18:54:40.747Z,102465.59
2023-03-02T18:57:08.915Z,102468.19
2023-03-02T18:59:37.751Z,102465.31
2023-03-02T19:02:08.182Z,102478.03
2023-03-02T19:04:35.677Z,102482.91
2023-03-02T19:07:03.167Z,102474.03
2023-03-02T19:09:31.340Z,102471.69
2023-03-02T19:11:58.854Z,102467.19
2023-03-02T19:14:26.419Z,102460.75
2023-03-02T19:16:53.965Z,102471.91
2023-03-02T19:19:21.481Z,102477.97
2023-03-02T19:21:48.978Z,102468.03
2023-03-02T19:24:16.374Z,102467.50
2023-03-02T19:26:43.809Z,102475.09
2023-03-02T19:29:11.262Z,102473.06
2023-03-02T19:31:40.557Z,102479.47
2023-03-02T19:34:08.066Z,102481.78
2023-03-02T19:36:36.033Z,102485.81
2023-03-02T19:39:03.473Z,102485.56
2023-03-02T19:41:31.051Z,102485.28
2023-03-02T19:43:58.639Z,102479.13
2023-03-02T19:46:26.153Z,102482.63
2023-03-02T19:48:54.947Z,102493.81
2023-03-02T19:51:22.368Z,102489.59
2023-03-02T19:53:49.905Z,102494.13
2023-03-02T19:56:17.608Z,102504.41
2023-03-02T19:58:49.662Z,102497.25
2023-03-02T20:01:24.697Z,102496.56
2023-03-02T20:03:53.930Z,102506.81
2023-03-02T20:06:23.949Z,102493.22
2023-03-02T20:08:51.467Z,102491.09
2023-03-02T20:11:19.352Z,102494.63
2023-03-02T20:13:48.269Z,102490.00
2023-03-02T20:16:16.054Z,102491.88
2023-03-02T20:18:45.526Z,102485.97
2023-03-02T20:21:13.053Z,102490.22
2023-03-02T20:23:40.571Z,102491.75
2023-03-02T20:26:08.623Z,102494.22
2023-03-02T20:28:36.343Z,102497.22
2023-03-02T20:31:08.837Z,102506.06
2023-03-02T20:33:38.391Z,102509.47
2023-03-02T20:36:06.707Z,102516.28
2023-03-02T20:38:36.571Z,102512.75
2023-03-02T20:41:04.883Z,102505.50
2023-03-02T20:43:32.981Z,102516.50
2023-03-02T20:46:01.595Z,102513.13
2023-03-02T20:48:29.784Z,102507.34
2023-03-02T20:50:57.842Z,102497.03
2023-03-02T20:53:25.838Z,102502.94
2023-03-02T20:55:53.904Z,102508.03
2023-03-02T20:58:21.458Z,102508.66
2023-03-02T21:00:49.257Z,102506.34
2023-03-02T21:03:16.831Z,102503.88
2023-03-02T21:05:44.706Z,102515.31
2023-03-02T21:08:14.886Z,102469.38
2023-03-02T21:10:43.465Z,102509.88
2023-03-02T21:13:11.897Z,102516.78
2023-03-02T21:15:41.043Z,102524.94
2023-03-02T21:18:08.825Z,102528.19
2023-03-02T21:20:37.155Z,102525.88
2023-03-02T21:23:04.977Z,102528.91
2023-03-02T21:25:32.578Z,102533.25
2023-03-02T21:28:00.164Z,102531.06
2023-03-02T21:30:29.653Z,102541.66
2023-03-02T21:32:57.243Z,102542.69
2023-03-02T21:35:24.859Z,102544.75
2023-03-02T21:37:54.805Z,102540.72
2023-03-02T21:40:26.025Z,102544.53
2023-03-02T21:42:53.978Z,102543.75
2023-03-02T21:45:22.910Z,102544.47
2023-03-02T21:47:50.753Z,102539.00
2023-03-02T21:50:28.668Z,102534.69
2023-03-02T21:52:59.217Z,102534.59
2023-03-02T21:55:27.758Z,102532.84
2023-03-02T21:57:55.530Z,102521.50
2023-03-02T22:00:34.306Z,102537.78
2023-03-02T22:03:02.078Z,102531.38
2023-03-02T22:05:29.791Z,102532.19
2023-03-02T22:07:57.406Z,102527.84
2023-03-02T22:10:33.809Z,102524.16
2023-03-02T22:13:10.064Z,102531.22
2023-03-02T22:15:37.595Z,102529.22
2023-03-02T22:18:10.394Z,102535.63
2023-03-02T22:20:39.835Z,102535.00
2023-03-02T22:23:12.049Z,102533.06
2023-03-02T22:25:39.472Z,102533.25
2023-03-02T22:28:27.191Z,102551.91
2023-03-02T22:30:59.067Z,102545.44
2023-03-02T22:33:28.048Z,102542.97
2023-03-02T22:36:01.834Z,102547.09
2023-03-02T22:38:30.467Z,102554.16
2023-03-02T22:40:58.417Z,102548.06
2023-03-02T22:43:26.096Z,102550.53
2023-03-02T22:45:54.397Z,102547.53
2023-03-02T22:48:25.489Z,102545.78
2023-03-02T22:50:52.967Z,102543.16
2023-03-02T22:53:25.358Z,102535.53
2023-03-02T22:55:57.043Z,102541.84
2023-03-02T22:58:34.045Z,102535.41
2023-03-02T23:01:02.690Z,102541.78
2023-03-02T23:03:40.893Z,102544.22
2023-03-02T23:06:20.558Z,102544.84
2023-03-02T23:08:47.977Z,102535.72
2023-03-02T23:11:17.547Z,102539.88
2023-03-02T23:13:45.115Z,102539.88
2023-03-02T23:16:20.139Z,102545.53
2023-03-02T23:18:48.921Z,102546.00
2023-03-02T23:21:21.034Z,102548.16
2023-03-02T23:23:48.769Z,102547.78
2023-03-02T23:26:19.500Z,102543.09
2023-03-02T23:28:48.293Z,102539.03
2023-03-02T23:31:16.518Z,102548.41
2023-03-02T23:33:43.926Z,102547.22
2023-03-02T23:36:11.387Z,102540.69
2023-03-02T23:38:39.029Z,102534.91
2023-03-02T23:41:07.449Z,102539.19
2023-03-02T23:43:35.493Z,102533.31
2023-03-02T23:46:02.990Z,102543.25
2023-03-02T23:48:30.422Z,102537.13
2023-03-02T23:50:57.973Z,102537.97
2023-03-02T23:53:26.012Z,102540.06
2023-03-02T23:55:54.723Z,102532.50
2023-03-02T23:58:22.236Z,102533.72
